sensor_id;sensor_type;location;lat;lon;timestamp;P1;durP1;ratioP1;P2;durP2;ratioP2
56081;SDS011;41957;52.060;5.138;2022-12-01T00:00:50;18.92;;;10.27;;
56081;SDS011;41957;52.060;5.138;2022-12-01T00:03:18;19.00;;;10.05;;
56081;SDS011;41957;52.060;5.138;2022-12-01T00:05:43;21.00;;;10.50;;
56081;SDS011;41957;52.060;5.138;2022-12-01T00:08:08;19.92;;;10.02;;
56081;SDS011;41957;52.060;5.138;2022-12-01T00:10:34;19.40;;;9.90;;
56081;SDS011;41957;52.060;5.138;2022-12-01T00:13:03;18.00;;;9.15;;
56081;SDS011;41957;52.060;5.138;2022-12-01T00:15:31;19.23;;;10.07;;
56081;SDS011;41957;52.060;5.138;2022-12-01T00:18:01;19.15;;;9.63;;
56081;SDS011;41957;52.060;5.138;2022-12-01T00:20:33;20.77;;;10.70;;
56081;SDS011;41957;52.060;5.138;2022-12-01T00:23:00;19.05;;;9.10;;
56081;SDS011;41957;52.060;5.138;2022-12-01T00:25:25;20.95;;;10.65;;
56081;SDS011;41957;52.060;5.138;2022-12-01T00:27:51;19.88;;;9.50;;
56081;SDS011;41957;52.060;5.138;2022-12-01T00:30:18;21.80;;;10.40;;
56081;SDS011;41957;52.060;5.138;2022-12-01T00:32:45;20.95;;;10.70;;
56081;SDS011;41957;52.060;5.138;2022-12-01T00:35:11;21.13;;;10.57;;
56081;SDS011;41957;52.060;5.138;2022-12-01T00:37:37;20.13;;;10.50;;
56081;SDS011;41957;52.060;5.138;2022-12-01T00:40:03;19.98;;;10.05;;
56081;SDS011;41957;52.060;5.138;2022-12-01T00:42:29;20.50;;;10.35;;
56081;SDS011;41957;52.060;5.138;2022-12-01T00:44:54;20.27;;;10.45;;
56081;SDS011;41957;52.060;5.138;2022-12-01T00:47:20;19.98;;;10.05;;
56081;SDS011;41957;52.060;5.138;2022-12-01T00:49:45;19.58;;;9.57;;
56081;SDS011;41957;52.060;5.138;2022-12-01T00:52:11;20.63;;;10.93;;
56081;SDS011;41957;52.060;5.138;2022-12-01T00:54:38;18.52;;;10.00;;
56081;SDS011;41957;52.060;5.138;2022-12-01T00:57:04;20.35;;;10.27;;
56081;SDS011;41957;52.060;5.138;2022-12-01T00:59:29;19.35;;;9.65;;
56081;SDS011;41957;52.060;5.138;2022-12-01T01:01:55;19.73;;;10.40;;
56081;SDS011;41957;52.060;5.138;2022-12-01T01:04:20;19.40;;;10.55;;
56081;SDS011;41957;52.060;5.138;2022-12-01T01:06:46;19.60;;;9.30;;
56081;SDS011;41957;52.060;5.138;2022-12-01T01:09:11;19.63;;;10.57;;
56081;SDS011;41957;52.060;5.138;2022-12-01T01:11:38;19.42;;;9.98;;
56081;SDS011;41957;52.060;5.138;2022-12-01T01:14:04;19.38;;;9.57;;
56081;SDS011;41957;52.060;5.138;2022-12-01T01:16:30;21.08;;;10.07;;
56081;SDS011;41957;52.060;5.138;2022-12-01T01:18:56;19.92;;;9.77;;
56081;SDS011;41957;52.060;5.138;2022-12-01T01:21:22;18.98;;;9.80;;
56081;SDS011;41957;52.060;5.138;2022-12-01T01:23:49;20.13;;;9.73;;
56081;SDS011;41957;52.060;5.138;2022-12-01T01:26:27;20.08;;;10.82;;
56081;SDS011;41957;52.060;5.138;2022-12-01T01:28:58;20.00;;;10.13;;
56081;SDS011;41957;52.060;5.138;2022-12-01T01:31:25;20.98;;;10.35;;
56081;SDS011;41957;52.060;5.138;2022-12-01T01:33:52;21.58;;;10.50;;
56081;SDS011;41957;52.060;5.138;2022-12-01T01:36:19;21.10;;;10.30;;
56081;SDS011;41957;52.060;5.138;2022-12-01T01:38:45;19.33;;;10.23;;
56081;SDS011;41957;52.060;5.138;2022-12-01T01:41:11;19.90;;;10.20;;
56081;SDS011;41957;52.060;5.138;2022-12-01T01:43:41;19.58;;;9.60;;
56081;SDS011;41957;52.060;5.138;2022-12-01T01:46:11;19.45;;;9.52;;
56081;SDS011;41957;52.060;5.138;2022-12-01T01:48:42;20.08;;;10.93;;
56081;SDS011;41957;52.060;5.138;2022-12-01T01:51:10;20.65;;;9.88;;
56081;SDS011;41957;52.060;5.138;2022-12-01T01:53:38;20.90;;;10.90;;
56081;SDS011;41957;52.060;5.138;2022-12-01T01:56:05;21.75;;;11.32;;
56081;SDS011;41957;52.060;5.138;2022-12-01T01:58:32;20.85;;;10.50;;
56081;SDS011;41957;52.060;5.138;2022-12-01T02:00:58;20.73;;;9.63;;
56081;SDS011;41957;52.060;5.138;2022-12-01T02:03:24;20.33;;;10.55;;
56081;SDS011;41957;52.060;5.138;2022-12-01T02:05:52;20.52;;;10.60;;
56081;SDS011;41957;52.060;5.138;2022-12-01T02:08:17;18.83;;;9.60;;
56081;SDS011;41957;52.060;5.138;2022-12-01T02:16:37;20.15;;;10.55;;
56081;SDS011;41957;52.060;5.138;2022-12-01T02:19:40;20.33;;;10.25;;
56081;SDS011;41957;52.060;5.138;2022-12-01T02:27:57;22.00;;;10.93;;
56081;SDS011;41957;52.060;5.138;2022-12-01T02:30:40;21.90;;;11.10;;
56081;SDS011;41957;52.060;5.138;2022-12-01T02:39:05;21.40;;;10.13;;
56081;SDS011;41957;52.060;5.138;2022-12-01T02:41:42;20.13;;;10.48;;
56081;SDS011;41957;52.060;5.138;2022-12-01T02:46:44;21.85;;;10.52;;
56081;SDS011;41957;52.060;5.138;2022-12-01T02:49:15;20.80;;;11.30;;
56081;SDS011;41957;52.060;5.138;2022-12-01T02:51:44;20.48;;;10.20;;
56081;SDS011;41957;52.060;5.138;2022-12-01T02:54:11;21.63;;;10.63;;
56081;SDS011;41957;52.060;5.138;2022-12-01T02:56:39;21.88;;;10.85;;
56081;SDS011;41957;52.060;5.138;2022-12-01T02:59:10;21.40;;;10.93;;
56081;SDS011;41957;52.060;5.138;2022-12-01T03:17:24;21.13;;;11.02;;
56081;SDS011;41957;52.060;5.138;2022-12-01T03:19:56;21.05;;;11.00;;
56081;SDS011;41957;52.060;5.138;2022-12-01T03:22:35;20.40;;;10.95;;
56081;SDS011;41957;52.060;5.138;2022-12-01T03:25:04;20.13;;;10.32;;
56081;SDS011;41957;52.060;5.138;2022-12-01T03:27:32;20.23;;;10.23;;
56081;SDS011;41957;52.060;5.138;2022-12-01T03:30:02;21.80;;;10.60;;
56081;SDS011;41957;52.060;5.138;2022-12-01T03:32:32;20.50;;;9.70;;
56081;SDS011;41957;52.060;5.138;2022-12-01T03:35:25;21.65;;;11.32;;
56081;SDS011;41957;52.060;5.138;2022-12-01T03:38:00;21.95;;;10.85;;
56081;SDS011;41957;52.060;5.138;2022-12-01T03:40:30;21.13;;;10.88;;
56081;SDS011;41957;52.060;5.138;2022-12-01T03:43:10;22.10;;;11.25;;
56081;SDS011;41957;52.060;5.138;2022-12-01T03:45:49;19.60;;;10.13;;
56081;SDS011;41957;52.060;5.138;2022-12-01T03:48:21;21.42;;;11.13;;
56081;SDS011;41957;52.060;5.138;2022-12-01T03:56:31;21.20;;;10.80;;
56081;SDS011;41957;52.060;5.138;2022-12-01T03:59:01;20.48;;;10.85;;
56081;SDS011;41957;52.060;5.138;2022-12-01T04:01:30;21.65;;;10.57;;
56081;SDS011;41957;52.060;5.138;2022-12-01T04:04:03;19.33;;;10.40;;
56081;SDS011;41957;52.060;5.138;2022-12-01T04:06:34;21.23;;;10.25;;
56081;SDS011;41957;52.060;5.138;2022-12-01T04:08:59;22.10;;;10.82;;
56081;SDS011;41957;52.060;5.138;2022-12-01T04:11:25;26.42;;;11.23;;
56081;SDS011;41957;52.060;5.138;2022-12-01T04:14:09;22.08;;;11.05;;
56081;SDS011;41957;52.060;5.138;2022-12-01T04:16:34;21.98;;;11.48;;
56081;SDS011;41957;52.060;5.138;2022-12-01T04:19:00;22.92;;;11.30;;
56081;SDS011;41957;52.060;5.138;2022-12-01T04:21:25;21.17;;;10.77;;
56081;SDS011;41957;52.060;5.138;2022-12-01T04:23:50;22.55;;;10.90;;
56081;SDS011;41957;52.060;5.138;2022-12-01T04:26:25;22.83;;;11.05;;
56081;SDS011;41957;52.060;5.138;2022-12-01T04:28:52;20.88;;;10.90;;
56081;SDS011;41957;52.060;5.138;2022-12-01T04:31:17;21.52;;;10.90;;
56081;SDS011;41957;52.060;5.138;2022-12-01T04:33:42;21.83;;;11.48;;
56081;SDS011;41957;52.060;5.138;2022-12-01T04:36:08;20.55;;;11.13;;
56081;SDS011;41957;52.060;5.138;2022-12-01T04:38:34;23.38;;;11.50;;
56081;SDS011;41957;52.060;5.138;2022-12-01T04:41:01;21.58;;;11.00;;
56081;SDS011;41957;52.060;5.138;2022-12-01T04:43:32;22.08;;;11.77;;
56081;SDS011;41957;52.060;5.138;2022-12-01T04:45:58;21.27;;;10.77;;
56081;SDS011;41957;52.060;5.138;2022-12-01T04:48:23;22.30;;;11.30;;
56081;SDS011;41957;52.060;5.138;2022-12-01T04:50:48;21.13;;;10.45;;
56081;SDS011;41957;52.060;5.138;2022-12-01T04:53:14;22.90;;;11.15;;
56081;SDS011;41957;52.060;5.138;2022-12-01T04:55:39;21.75;;;10.48;;
56081;SDS011;41957;52.060;5.138;2022-12-01T04:58:04;21.33;;;11.20;;
56081;SDS011;41957;52.060;5.138;2022-12-01T05:00:30;23.30;;;11.57;;
56081;SDS011;41957;52.060;5.138;2022-12-01T05:02:56;21.42;;;11.05;;
56081;SDS011;41957;52.060;5.138;2022-12-01T05:05:22;21.85;;;12.02;;
56081;SDS011;41957;52.060;5.138;2022-12-01T05:07:47;23.38;;;11.98;;
56081;SDS011;41957;52.060;5.138;2022-12-01T05:10:13;22.80;;;10.95;;
56081;SDS011;41957;52.060;5.138;2022-12-01T05:12:38;22.67;;;11.73;;
56081;SDS011;41957;52.060;5.138;2022-12-01T05:15:05;22.20;;;10.88;;
56081;SDS011;41957;52.060;5.138;2022-12-01T05:17:31;21.88;;;11.27;;
56081;SDS011;41957;52.060;5.138;2022-12-01T05:19:56;20.90;;;10.85;;
56081;SDS011;41957;52.060;5.138;2022-12-01T05:22:40;22.35;;;10.82;;
56081;SDS011;41957;52.060;5.138;2022-12-01T05:25:06;21.98;;;11.32;;
56081;SDS011;41957;52.060;5.138;2022-12-01T05:27:31;22.67;;;11.65;;
56081;SDS011;41957;52.060;5.138;2022-12-01T05:29:57;23.02;;;11.55;;
56081;SDS011;41957;52.060;5.138;2022-12-01T05:32:22;22.98;;;11.65;;
56081;SDS011;41957;52.060;5.138;2022-12-01T05:34:47;22.45;;;11.05;;
56081;SDS011;41957;52.060;5.138;2022-12-01T05:37:13;21.67;;;10.85;;
56081;SDS011;41957;52.060;5.138;2022-12-01T05:39:38;23.65;;;12.15;;
56081;SDS011;41957;52.060;5.138;2022-12-01T05:42:04;22.45;;;12.05;;
56081;SDS011;41957;52.060;5.138;2022-12-01T05:44:29;22.65;;;11.40;;
56081;SDS011;41957;52.060;5.138;2022-12-01T05:46:55;22.77;;;11.88;;
56081;SDS011;41957;52.060;5.138;2022-12-01T05:49:20;21.13;;;11.25;;
56081;SDS011;41957;52.060;5.138;2022-12-01T05:51:45;21.38;;;11.65;;
56081;SDS011;41957;52.060;5.138;2022-12-01T05:54:11;24.58;;;11.73;;
56081;SDS011;41957;52.060;5.138;2022-12-01T05:56:36;24.58;;;12.43;;
56081;SDS011;41957;52.060;5.138;2022-12-01T05:59:01;22.38;;;11.32;;
56081;SDS011;41957;52.060;5.138;2022-12-01T06:01:27;23.83;;;11.70;;
56081;SDS011;41957;52.060;5.138;2022-12-01T06:03:52;22.30;;;12.10;;
56081;SDS011;41957;52.060;5.138;2022-12-01T06:06:18;24.48;;;12.25;;
56081;SDS011;41957;52.060;5.138;2022-12-01T06:08:44;22.00;;;11.65;;
56081;SDS011;41957;52.060;5.138;2022-12-01T06:11:09;23.38;;;12.18;;
56081;SDS011;41957;52.060;5.138;2022-12-01T06:13:35;22.55;;;11.30;;
56081;SDS011;41957;52.060;5.138;2022-12-01T06:16:01;21.02;;;10.52;;
56081;SDS011;41957;52.060;5.138;2022-12-01T06:18:35;28.45;;;11.80;;
56081;SDS011;41957;52.060;5.138;2022-12-01T06:21:02;23.77;;;11.70;;
56081;SDS011;41957;52.060;5.138;2022-12-01T06:23:29;23.38;;;11.07;;
56081;SDS011;41957;52.060;5.138;2022-12-01T06:25:55;23.98;;;11.73;;
56081;SDS011;41957;52.060;5.138;2022-12-01T06:28:20;23.15;;;11.85;;
56081;SDS011;41957;52.060;5.138;2022-12-01T06:30:46;24.90;;;11.15;;
56081;SDS011;41957;52.060;5.138;2022-12-01T06:33:11;22.92;;;11.63;;
56081;SDS011;41957;52.060;5.138;2022-12-01T06:35:36;23.38;;;11.60;;
56081;SDS011;41957;52.060;5.138;2022-12-01T06:38:02;24.92;;;11.75;;
56081;SDS011;41957;52.060;5.138;2022-12-01T06:40:28;27.45;;;12.73;;
56081;SDS011;41957;52.060;5.138;2022-12-01T06:42:54;24.95;;;11.88;;
56081;SDS011;41957;52.060;5.138;2022-12-01T06:45:19;24.40;;;12.02;;
56081;SDS011;41957;52.060;5.138;2022-12-01T06:47:44;24.23;;;11.50;;
56081;SDS011;41957;52.060;5.138;2022-12-01T06:50:12;21.48;;;10.48;;
56081;SDS011;41957;52.060;5.138;2022-12-01T06:52:37;24.58;;;11.80;;
56081;SDS011;41957;52.060;5.138;2022-12-01T06:55:03;24.25;;;11.70;;
56081;SDS011;41957;52.060;5.138;2022-12-01T06:57:29;21.88;;;11.23;;
56081;SDS011;41957;52.060;5.138;2022-12-01T06:59:55;21.92;;;10.80;;
56081;SDS011;41957;52.060;5.138;2022-12-01T07:02:20;23.80;;;11.55;;
56081;SDS011;41957;52.060;5.138;2022-12-01T07:04:49;24.98;;;12.70;;
56081;SDS011;41957;52.060;5.138;2022-12-01T07:07:17;23.60;;;12.32;;
56081;SDS011;41957;52.060;5.138;2022-12-01T07:09:43;25.98;;;12.45;;
56081;SDS011;41957;52.060;5.138;2022-12-01T07:12:08;25.42;;;12.32;;
56081;SDS011;41957;52.060;5.138;2022-12-01T07:14:33;26.60;;;12.20;;
56081;SDS011;41957;52.060;5.138;2022-12-01T07:16:59;26.73;;;13.13;;
56081;SDS011;41957;52.060;5.138;2022-12-01T07:19:25;24.02;;;12.15;;
56081;SDS011;41957;52.060;5.138;2022-12-01T07:21:50;25.70;;;13.05;;
56081;SDS011;41957;52.060;5.138;2022-12-01T07:24:15;25.70;;;12.77;;
56081;SDS011;41957;52.060;5.138;2022-12-01T07:26:41;25.83;;;12.52;;
56081;SDS011;41957;52.060;5.138;2022-12-01T07:29:07;23.25;;;12.00;;
56081;SDS011;41957;52.060;5.138;2022-12-01T07:31:33;26.08;;;13.38;;
56081;SDS011;41957;52.060;5.138;2022-12-01T07:33:58;25.25;;;12.27;;
56081;SDS011;41957;52.060;5.138;2022-12-01T07:36:24;25.60;;;12.43;;
56081;SDS011;41957;52.060;5.138;2022-12-01T07:38:49;25.75;;;12.63;;
56081;SDS011;41957;52.060;5.138;2022-12-01T07:41:15;25.35;;;13.10;;
56081;SDS011;41957;52.060;5.138;2022-12-01T07:43:45;25.30;;;12.63;;
56081;SDS011;41957;52.060;5.138;2022-12-01T07:46:19;27.08;;;13.10;;
56081;SDS011;41957;52.060;5.138;2022-12-01T07:48:45;27.60;;;13.30;;
56081;SDS011;41957;52.060;5.138;2022-12-01T07:51:13;24.50;;;12.25;;
56081;SDS011;41957;52.060;5.138;2022-12-01T07:53:40;26.52;;;13.30;;
56081;SDS011;41957;52.060;5.138;2022-12-01T07:56:06;28.25;;;13.57;;
56081;SDS011;41957;52.060;5.138;2022-12-01T07:58:32;24.27;;;12.48;;
56081;SDS011;41957;52.060;5.138;2022-12-01T08:00:58;27.27;;;13.43;;
56081;SDS011;41957;52.060;5.138;2022-12-01T08:03:29;23.40;;;12.75;;
56081;SDS011;41957;52.060;5.138;2022-12-01T08:05:57;27.08;;;13.27;;
56081;SDS011;41957;52.060;5.138;2022-12-01T08:08:24;26.30;;;13.02;;
56081;SDS011;41957;52.060;5.138;2022-12-01T08:10:50;25.42;;;12.35;;
56081;SDS011;41957;52.060;5.138;2022-12-01T08:13:16;26.02;;;13.40;;
56081;SDS011;41957;52.060;5.138;2022-12-01T08:15:41;25.33;;;12.55;;
56081;SDS011;41957;52.060;5.138;2022-12-01T08:18:07;26.55;;;13.70;;
56081;SDS011;41957;52.060;5.138;2022-12-01T08:20:32;27.25;;;13.65;;
56081;SDS011;41957;52.060;5.138;2022-12-01T08:23:00;26.95;;;13.45;;
56081;SDS011;41957;52.060;5.138;2022-12-01T08:25:26;26.65;;;14.45;;
56081;SDS011;41957;52.060;5.138;2022-12-01T08:27:52;27.98;;;14.07;;
56081;SDS011;41957;52.060;5.138;2022-12-01T08:30:18;28.90;;;14.98;;
56081;SDS011;41957;52.060;5.138;2022-12-01T08:32:43;26.20;;;13.25;;
56081;SDS011;41957;52.060;5.138;2022-12-01T08:35:09;28.45;;;13.60;;
56081;SDS011;41957;52.060;5.138;2022-12-01T08:37:34;26.48;;;12.95;;
56081;SDS011;41957;52.060;5.138;2022-12-01T08:39:59;26.70;;;12.63;;
56081;SDS011;41957;52.060;5.138;2022-12-01T08:42:25;27.63;;;13.52;;
56081;SDS011;41957;52.060;5.138;2022-12-01T08:44:50;27.90;;;13.98;;
56081;SDS011;41957;52.060;5.138;2022-12-01T08:47:15;27.90;;;13.57;;
56081;SDS011;41957;52.060;5.138;2022-12-01T08:49:41;24.45;;;12.48;;
56081;SDS011;41957;52.060;5.138;2022-12-01T08:52:06;26.88;;;14.23;;
56081;SDS011;41957;52.060;5.138;2022-12-01T08:54:31;27.85;;;13.05;;
56081;SDS011;41957;52.060;5.138;2022-12-01T08:56:57;28.48;;;14.13;;
56081;SDS011;41957;52.060;5.138;2022-12-01T08:59:22;28.30;;;13.57;;
56081;SDS011;41957;52.060;5.138;2022-12-01T09:01:48;27.40;;;13.50;;
56081;SDS011;41957;52.060;5.138;2022-12-01T09:04:16;26.88;;;13.57;;
56081;SDS011;41957;52.060;5.138;2022-12-01T09:06:43;24.33;;;13.32;;
56081;SDS011;41957;52.060;5.138;2022-12-01T09:09:14;23.88;;;13.13;;
56081;SDS011;41957;52.060;5.138;2022-12-01T09:11:42;25.55;;;13.98;;
56081;SDS011;41957;52.060;5.138;2022-12-01T09:14:08;27.05;;;12.55;;
56081;SDS011;41957;52.060;5.138;2022-12-01T09:16:34;26.88;;;13.50;;
56081;SDS011;41957;52.060;5.138;2022-12-01T09:19:00;26.70;;;13.90;;
56081;SDS011;41957;52.060;5.138;2022-12-01T09:21:26;26.90;;;13.52;;
56081;SDS011;41957;52.060;5.138;2022-12-01T09:23:56;25.95;;;13.43;;
56081;SDS011;41957;52.060;5.138;2022-12-01T09:26:22;26.58;;;13.38;;
56081;SDS011;41957;52.060;5.138;2022-12-01T09:28:50;27.40;;;13.65;;
56081;SDS011;41957;52.060;5.138;2022-12-01T09:31:17;27.08;;;12.88;;
56081;SDS011;41957;52.060;5.138;2022-12-01T09:33:44;28.27;;;13.98;;
56081;SDS011;41957;52.060;5.138;2022-12-01T09:36:11;26.85;;;13.60;;
56081;SDS011;41957;52.060;5.138;2022-12-01T09:38:37;29.38;;;14.05;;
56081;SDS011;41957;52.060;5.138;2022-12-01T09:41:05;28.48;;;13.90;;
56081;SDS011;41957;52.060;5.138;2022-12-01T09:46:23;26.02;;;13.68;;
56081;SDS011;41957;52.060;5.138;2022-12-01T09:48:52;26.58;;;14.05;;
56081;SDS011;41957;52.060;5.138;2022-12-01T09:51:22;25.45;;;13.82;;
56081;SDS011;41957;52.060;5.138;2022-12-01T09:53:51;26.77;;;13.27;;
56081;SDS011;41957;52.060;5.138;2022-12-01T09:56:28;29.25;;;15.15;;
56081;SDS011;41957;52.060;5.138;2022-12-01T09:58:57;26.90;;;13.40;;
56081;SDS011;41957;52.060;5.138;2022-12-01T10:01:32;26.92;;;13.98;;
56081;SDS011;41957;52.060;5.138;2022-12-01T10:04:08;28.90;;;14.73;;
56081;SDS011;41957;52.060;5.138;2022-12-01T10:06:41;27.08;;;13.80;;
56081;SDS011;41957;52.060;5.138;2022-12-01T10:09:14;27.35;;;13.05;;
56081;SDS011;41957;52.060;5.138;2022-12-01T10:12:03;25.58;;;13.10;;
56081;SDS011;41957;52.060;5.138;2022-12-01T10:14:35;26.55;;;13.52;;
56081;SDS011;41957;52.060;5.138;2022-12-01T10:17:22;26.23;;;13.35;;
56081;SDS011;41957;52.060;5.138;2022-12-01T10:20:02;28.40;;;14.45;;
56081;SDS011;41957;52.060;5.138;2022-12-01T10:25:22;29.48;;;14.55;;
56081;SDS011;41957;52.060;5.138;2022-12-01T10:30:26;28.83;;;13.93;;
56081;SDS011;41957;52.060;5.138;2022-12-01T10:32:55;31.02;;;14.95;;
56081;SDS011;41957;52.060;5.138;2022-12-01T10:35:28;27.40;;;14.30;;
56081;SDS011;41957;52.060;5.138;2022-12-01T10:38:02;27.40;;;14.23;;
56081;SDS011;41957;52.060;5.138;2022-12-01T10:40:30;27.65;;;14.15;;
56081;SDS011;41957;52.060;5.138;2022-12-01T10:42:59;29.15;;;13.93;;
56081;SDS011;41957;52.060;5.138;2022-12-01T10:45:26;27.77;;;14.05;;
56081;SDS011;41957;52.060;5.138;2022-12-01T10:50:49;28.65;;;14.35;;
56081;SDS011;41957;52.060;5.138;2022-12-01T10:56:30;27.33;;;13.65;;
56081;SDS011;41957;52.060;5.138;2022-12-01T10:58:48;28.42;;;13.65;;
56081;SDS011;41957;52.060;5.138;2022-12-01T11:01:26;27.15;;;13.90;;
56081;SDS011;41957;52.060;5.138;2022-12-01T11:04:41;27.55;;;14.10;;
56081;SDS011;41957;52.060;5.138;2022-12-01T11:06:53;27.63;;;14.02;;
56081;SDS011;41957;52.060;5.138;2022-12-01T11:09:19;31.55;;;14.70;;
56081;SDS011;41957;52.060;5.138;2022-12-01T11:12:01;27.33;;;14.38;;
56081;SDS011;41957;52.060;5.138;2022-12-01T11:14:42;26.52;;;13.95;;
56081;SDS011;41957;52.060;5.138;2022-12-01T11:19:41;26.45;;;13.93;;
56081;SDS011;41957;52.060;5.138;2022-12-01T11:22:20;26.08;;;13.85;;
56081;SDS011;41957;52.060;5.138;2022-12-01T11:25:04;24.17;;;13.50;;
56081;SDS011;41957;52.060;5.138;2022-12-01T11:27:33;29.55;;;13.50;;
56081;SDS011;41957;52.060;5.138;2022-12-01T11:30:19;27.92;;;13.73;;
56081;SDS011;41957;52.060;5.138;2022-12-01T11:32:56;28.17;;;14.43;;
56081;SDS011;41957;52.060;5.138;2022-12-01T11:35:24;28.15;;;14.45;;
56081;SDS011;41957;52.060;5.138;2022-12-01T11:38:02;32.08;;;15.02;;
56081;SDS011;41957;52.060;5.138;2022-12-01T11:40:30;28.13;;;13.82;;
56081;SDS011;41957;52.060;5.138;2022-12-01T11:43:01;29.08;;;14.15;;
56081;SDS011;41957;52.060;5.138;2022-12-01T11:50:40;36.30;;;20.27;;
56081;SDS011;41957;52.060;5.138;2022-12-01T11:56:16;40.00;;;20.15;;
56081;SDS011;41957;52.060;5.138;2022-12-01T11:58:53;36.33;;;20.08;;
56081;SDS011;41957;52.060;5.138;2022-12-01T12:01:26;38.25;;;20.75;;
56081;SDS011;41957;52.060;5.138;2022-12-01T12:06:48;35.42;;;17.67;;
56081;SDS011;41957;52.060;5.138;2022-12-01T12:32:06;32.15;;;16.40;;
56081;SDS011;41957;52.060;5.138;2022-12-01T12:40:55;31.30;;;16.40;;
56081;SDS011;41957;52.060;5.138;2022-12-01T12:46:16;29.45;;;15.45;;
56081;SDS011;41957;52.060;5.138;2022-12-01T12:57:02;28.42;;;16.10;;
56081;SDS011;41957;52.060;5.138;2022-12-01T12:59:43;28.13;;;15.30;;
56081;SDS011;41957;52.060;5.138;2022-12-01T13:02:22;29.65;;;15.23;;
56081;SDS011;41957;52.060;5.138;2022-12-01T13:07:44;27.98;;;15.80;;
56081;SDS011;41957;52.060;5.138;2022-12-01T13:10:19;28.08;;;14.90;;
56081;SDS011;41957;52.060;5.138;2022-12-01T13:13:03;29.20;;;14.77;;
56081;SDS011;41957;52.060;5.138;2022-12-01T13:15:51;27.58;;;14.10;;
56081;SDS011;41957;52.060;5.138;2022-12-01T13:20:47;27.10;;;14.45;;
56081;SDS011;41957;52.060;5.138;2022-12-01T13:23:15;26.83;;;13.70;;
56081;SDS011;41957;52.060;5.138;2022-12-01T13:25:44;29.70;;;14.95;;
56081;SDS011;41957;52.060;5.138;2022-12-01T13:28:26;26.65;;;14.63;;
56081;SDS011;41957;52.060;5.138;2022-12-01T13:31:14;26.02;;;14.77;;
56081;SDS011;41957;52.060;5.138;2022-12-01T13:34:02;27.48;;;14.60;;
56081;SDS011;41957;52.060;5.138;2022-12-01T13:36:29;26.75;;;14.93;;
56081;SDS011;41957;52.060;5.138;2022-12-01T13:38:56;26.55;;;14.40;;
56081;SDS011;41957;52.060;5.138;2022-12-01T13:41:31;26.70;;;14.13;;
56081;SDS011;41957;52.060;5.138;2022-12-01T13:44:00;26.00;;;14.10;;
56081;SDS011;41957;52.060;5.138;2022-12-01T13:46:29;28.80;;;14.73;;
56081;SDS011;41957;52.060;5.138;2022-12-01T13:48:58;28.30;;;14.07;;
56081;SDS011;41957;52.060;5.138;2022-12-01T13:51:26;27.50;;;14.15;;
56081;SDS011;41957;52.060;5.138;2022-12-01T13:54:30;26.00;;;13.75;;
56081;SDS011;41957;52.060;5.138;2022-12-01T13:57:02;26.15;;;14.15;;
56081;SDS011;41957;52.060;5.138;2022-12-01T14:02:25;25.63;;;13.88;;
56081;SDS011;41957;52.060;5.138;2022-12-01T14:04:52;27.10;;;14.38;;
56081;SDS011;41957;52.060;5.138;2022-12-01T14:07:36;25.65;;;14.23;;
56081;SDS011;41957;52.060;5.138;2022-12-01T14:10:07;26.77;;;14.40;;
56081;SDS011;41957;52.060;5.138;2022-12-01T14:12:55;27.98;;;13.25;;
56081;SDS011;41957;52.060;5.138;2022-12-01T14:15:30;26.73;;;14.45;;
56081;SDS011;41957;52.060;5.138;2022-12-01T14:17:57;25.63;;;13.45;;
56081;SDS011;41957;52.060;5.138;2022-12-01T14:20:25;28.27;;;14.50;;
56081;SDS011;41957;52.060;5.138;2022-12-01T14:23:11;26.30;;;14.27;;
56081;SDS011;41957;52.060;5.138;2022-12-01T14:25:40;26.02;;;13.82;;
56081;SDS011;41957;52.060;5.138;2022-12-01T14:28:14;29.80;;;14.35;;
56081;SDS011;41957;52.060;5.138;2022-12-01T14:36:20;28.13;;;14.98;;
56081;SDS011;41957;52.060;5.138;2022-12-01T14:38:59;25.75;;;13.88;;
56081;SDS011;41957;52.060;5.138;2022-12-01T14:44:18;25.25;;;13.20;;
56081;SDS011;41957;52.060;5.138;2022-12-01T14:49:30;23.60;;;12.90;;
56081;SDS011;41957;52.060;5.138;2022-12-01T14:52:03;23.50;;;12.88;;
56081;SDS011;41957;52.060;5.138;2022-12-01T14:54:40;24.38;;;13.60;;
56081;SDS011;41957;52.060;5.138;2022-12-01T14:57:08;25.00;;;13.52;;
56081;SDS011;41957;52.060;5.138;2022-12-01T14:59:35;24.23;;;13.10;;
56081;SDS011;41957;52.060;5.138;2022-12-01T15:02:02;26.17;;;13.43;;
56081;SDS011;41957;52.060;5.138;2022-12-01T15:04:34;24.52;;;13.25;;
56081;SDS011;41957;52.060;5.138;2022-12-01T15:07:21;23.38;;;13.65;;
56081;SDS011;41957;52.060;5.138;2022-12-01T15:09:59;26.30;;;13.50;;
56081;SDS011;41957;52.060;5.138;2022-12-01T15:12:26;25.55;;;13.23;;
56081;SDS011;41957;52.060;5.138;2022-12-01T15:14:53;24.42;;;12.45;;
56081;SDS011;41957;52.060;5.138;2022-12-01T15:17:29;24.55;;;12.38;;
56081;SDS011;41957;52.060;5.138;2022-12-01T15:19:56;23.33;;;12.15;;
56081;SDS011;41957;52.060;5.138;2022-12-01T15:22:22;24.35;;;12.10;;
56081;SDS011;41957;52.060;5.138;2022-12-01T15:24:53;22.73;;;12.48;;
56081;SDS011;41957;52.060;5.138;2022-12-01T15:27:29;22.98;;;11.90;;
56081;SDS011;41957;52.060;5.138;2022-12-01T15:29:56;22.80;;;11.82;;
56081;SDS011;41957;52.060;5.138;2022-12-01T15:32:27;21.70;;;11.45;;
56081;SDS011;41957;52.060;5.138;2022-12-01T15:34:54;22.45;;;11.15;;
56081;SDS011;41957;52.060;5.138;2022-12-01T15:37:25;22.42;;;11.95;;
56081;SDS011;41957;52.060;5.138;2022-12-01T15:39:56;22.80;;;11.75;;
56081;SDS011;41957;52.060;5.138;2022-12-01T15:42:29;21.98;;;11.35;;
56081;SDS011;41957;52.060;5.138;2022-12-01T15:45:14;20.23;;;10.25;;
56081;SDS011;41957;52.060;5.138;2022-12-01T15:52:55;22.00;;;11.63;;
56081;SDS011;41957;52.060;5.138;2022-12-01T15:55:29;21.00;;;10.50;;
56081;SDS011;41957;52.060;5.138;2022-12-01T16:00:22;20.08;;;11.05;;
56081;SDS011;41957;52.060;5.138;2022-12-01T16:02:49;22.48;;;11.13;;
56081;SDS011;41957;52.060;5.138;2022-12-01T16:05:17;21.77;;;10.43;;
56081;SDS011;41957;52.060;5.138;2022-12-01T16:07:47;19.98;;;11.07;;
56081;SDS011;41957;52.060;5.138;2022-12-01T16:10:29;21.85;;;11.07;;
56081;SDS011;41957;52.060;5.138;2022-12-01T16:16:00;22.38;;;11.40;;
56081;SDS011;41957;52.060;5.138;2022-12-01T16:18:43;21.35;;;11.38;;
56081;SDS011;41957;52.060;5.138;2022-12-01T16:21:19;22.80;;;11.52;;
56081;SDS011;41957;52.060;5.138;2022-12-01T16:23:45;22.17;;;10.63;;
56081;SDS011;41957;52.060;5.138;2022-12-01T16:26:11;21.10;;;10.45;;
56081;SDS011;41957;52.060;5.138;2022-12-01T16:28:37;23.48;;;11.50;;
56081;SDS011;41957;52.060;5.138;2022-12-01T16:31:03;22.52;;;11.00;;
56081;SDS011;41957;52.060;5.138;2022-12-01T16:33:29;19.95;;;9.55;;
56081;SDS011;41957;52.060;5.138;2022-12-01T16:36:01;18.25;;;9.75;;
56081;SDS011;41957;52.060;5.138;2022-12-01T16:38:28;22.35;;;9.30;;
56081;SDS011;41957;52.060;5.138;2022-12-01T16:40:55;22.40;;;10.80;;
56081;SDS011;41957;52.060;5.138;2022-12-01T16:43:23;19.67;;;10.82;;
56081;SDS011;41957;52.060;5.138;2022-12-01T16:45:49;18.88;;;9.57;;
56081;SDS011;41957;52.060;5.138;2022-12-01T16:48:21;18.75;;;10.30;;
56081;SDS011;41957;52.060;5.138;2022-12-01T16:50:47;18.33;;;9.38;;
56081;SDS011;41957;52.060;5.138;2022-12-01T16:53:14;19.30;;;9.57;;
56081;SDS011;41957;52.060;5.138;2022-12-01T16:55:53;22.17;;;10.50;;